Portada
METAR-TAF:

METAR-TAF

Aeroports :

Gabès, Tunísia

latitud: 33-53N, longitud: 010-06E, altitud: 4 m

Observació

L'informe es va fer fa 28 minuts, a les 17:00 UTC
Vent 8 kt del Est/Sud-Est
Temperatura 20°C
Humitat 28%
Pressió 1013 hPa
Visibilitat 10 km o més
Núvols disperses a una alçada de 3000 ft

METAR: DTTG 261700Z 11008KT 9999 SCT030 20/01 Q1013 NOSIG

Hora: 18:28 (17:28 UTC)

Pronòstic

L'informe es va fer fa 5 hores i 28 minuts, a les 12:00 UTC
Pronòstic vàlid del 26 a les 13 UTC al 26 a les 22 UTC
Vent 5 kt amb direcció variable
Visibilitat 10 km o més
sense núvols per sota de 1500 mi sense presència de cumulonimbus.
Evolucionant progressivament
l' 26 a les 14 UTC al 26 a les 16 UTC
Vent 10 kt del Est

TAF: DTTG 261200Z 2613/2622 VRB05KT CAVOK BECMG 2614/2616 09010KT

Observacions i pronòstics meteorològics de més de 4000 aeroports (METAR i TAF).

Les estacions disponibles són els punts grocs i vermells al mapa.

Posi el ratolí al punt desitjat per veure el nom de l'estació.

Feu clic per veure les observacions i els pronòstics meteorològics.

Per canviar el mapa: feu clic els botons verds amb una creu de color negre per apropar; al botó verd amb un guió per allunyar la imatge; o en les fletxes verdes per a mapes adjacents.


METAR-TAF: